Time;durP1;ratioP1;P1;durP2;ratioP2;P2;SDS_P1;SDS_P2;PMS_P1;PMS_P2;Temp;Humidity;BMP_temperature;BMP_pressure;BME280_temperature;BME280_humidity;BME280_pressure;Samples;Min_cycle;Max_cycle;Signal;HPM_P1;HPM_P2
2022/06/21 00:03:56;;;;;;;;;7.00;6.00;;;;;23.56;46.99;100478.53;146612;564;46010;-75
2022/06/21 00:07:05;;;;;;;;;7.25;7.25;;;;;23.45;48.11;100473.28;146611;589;46010;-72
2022/06/21 00:10:46;;;;;;;;;;;;;;;;;;;;;
2022/06/21 00:25:56;;;;;;;;;8.75;8.75;;;;;23.45;48.00;100472.41;146613;639;46020;-73
2022/06/21 00:29:06;;;;;;;;;8.75;8.50;;;;;23.39;48.35;100480.38;146611;662;46011;-73
2022/06/21 00:32:05;;;;;;;;;9.00;7.50;;;;;23.29;49.43;100477.75;146609;581;46019;-73
2022/06/21 00:35:23;;;;;;;;;10.25;10.25;;;;;22.18;48.96;100303.72;146609;564;46018;-73
2022/06/21 00:38:43;;;;;;;;;9.25;9.25;;;;;23.15;49.62;100484.03;146612;587;46019;-73
2022/06/21 00:42:09;;;;;;;;;9.00;8.00;;;;;23.05;50.05;100486.69;146624;682;46008;-72
2022/06/21 00:45:22;;;;;;;;;10.75;10.00;;;;;22.97;49.96;100485.84;146613;599;46010;-70
2022/06/21 00:48:47;;;;;;;;;7.50;7.50;;;;;22.93;49.92;100481.41;146614;583;46018;-69
2022/06/21 00:52:16;;;;;;;;;;;;;;;;;;;;;
2022/06/21 00:59:44;;;;;;;;;9.75;9.00;;;;;22.88;49.96;100474.37;146612;660;46011;-67
2022/06/21 01:02:48;;;;;;;;;9.50;9.50;;;;;22.84;50.33;100476.16;146610;676;46008;-71
2022/06/21 01:06:04;;;;;;;;;9.00;9.00;;;;;22.80;50.18;100475.28;146614;603;46019;-71
2022/06/21 01:09:15;;;;;;;;;8.50;7.75;;;;;22.81;50.70;100476.16;146608;571;46010;-71
2022/06/21 01:12:27;;;;;;;;;11.25;9.50;;;;;22.81;49.56;100473.53;146607;564;45020;-70
2022/06/21 01:15:52;;;;;;;;;9.50;8.25;;;;;22.82;49.49;100467.34;146608;638;46019;-74
2022/06/21 01:19:01;;;;;;;;;9.00;9.00;;;;;22.84;50.43;100470.87;146609;630;46010;-75
2022/06/21 01:26:47;;;;;;;;;9.00;8.67;;;;;22.76;49.31;100457.66;146612;610;46018;-73
2022/06/21 01:29:43;;;;;;;;;10.75;10.00;;;;;22.73;50.94;100452.38;146610;569;46019;-73
2022/06/21 01:32:45;;;;;;;;;10.67;9.67;;;;;22.34;51.11;100390.84;146612;660;46010;-74
2022/06/21 01:36:07;;;;;;;;;9.67;9.67;;;;;21.48;49.88;100241.38;146608;570;46019;-73
2022/06/21 01:39:25;;;;;;;;;9.67;9.33;;;;;22.66;50.63;100447.13;146608;676;47010;-71
2022/06/21 01:42:54;;;;;;;;;10.00;9.75;;;;;22.65;50.96;100450.63;146610;570;46011;-71
2022/06/21 01:46:13;;;;;;;;;9.00;8.25;;;;;22.60;50.88;100443.59;146602;648;47010;-71
2022/06/21 01:49:21;;;;;;;;;9.50;8.50;;;;;22.53;51.17;100441.88;146609;590;46018;-71
2022/06/21 01:56:57;;;;;;;;;;;;;;;;;;;;;
2022/06/21 02:00:07;;;;;;;;;8.67;8.67;;;;;22.36;51.74;100439.25;146610;574;46021;-75
2022/06/21 02:03:46;;;;;;;;;10.50;10.50;;;;;22.37;50.71;100430.47;146607;571;46018;-74
2022/06/21 02:06:47;;;;;;;;;11.75;11.25;;;;;22.36;52.27;100438.38;146611;565;46020;-70
2022/06/21 02:09:58;;;;;;;;;9.75;9.75;;;;;22.32;51.46;100434.00;146609;703;46010;-71
2022/06/21 02:13:33;;;;;;;;;8.50;8.50;;;;;22.27;52.19;100425.19;146613;613;45050;-71
2022/06/21 02:16:57;;;;;;;;;8.75;8.75;;;;;22.20;51.45;100426.94;146615;671;46018;-73
2022/06/21 02:20:47;;;;;;;;;9.75;8.50;;;;;22.16;50.80;100427.84;146610;678;46008;-76
2022/06/21 02:24:06;;;;;;;;;11.00;9.75;;;;;22.22;51.36;100426.97;146610;671;46008;-72
2022/06/21 02:27:04;;;;;;;;;10.50;10.50;;;;;22.25;52.25;100433.13;146606;577;46020;-73
2022/06/21 02:30:47;;;;;;;;;12.00;10.50;;;;;22.23;51.36;100431.34;146609;671;46018;-73
2022/06/21 02:34:28;;;;;;;;;9.50;7.75;;;;;21.06;50.60;100230.81;146616;611;46008;-75
2022/06/21 02:37:32;;;;;;;;;7.50;7.50;;;;;22.28;52.18;100437.53;146615;564;46018;-73
2022/06/21 02:41:25;;;;;;;;;10.00;9.25;;;;;21.25;51.14;100251.91;146608;628;46010;-72
2022/06/21 02:44:42;;;;;;;;;11.50;9.75;;;;;21.15;51.37;100238.72;146611;744;45045;-72
2022/06/21 02:48:46;;;;;;;;;9.25;9.25;;;;;22.27;51.53;100444.53;146612;627;46018;-72
2022/06/21 02:56:15;;;;;;;;;13.50;10.50;;;;;21.04;51.29;100244.84;146605;704;46010;-74
2022/06/21 02:59:19;;;;;;;;;10.25;9.25;;;;;22.16;52.85;100446.31;146614;622;46010;-75
2022/06/21 03:02:38;;;;;;;;;12.00;11.75;;;;;22.11;52.13;100445.41;146607;563;46020;-72
2022/06/21 03:06:15;;;;;;;;;11.25;11.25;;;;;22.09;51.69;100458.63;146610;660;45922;-74
2022/06/21 03:09:28;;;;;;;;;8.00;8.00;;;;;22.11;51.49;100455.97;146613;692;46020;-70
2022/06/21 03:13:01;;;;;;;;;13.75;13.00;;;;;22.17;51.77;100449.84;146607;578;46010;-72
2022/06/21 03:16:20;;;;;;;;;10.50;9.50;;;;;22.28;51.53;100461.28;146603;627;46012;-72
2022/06/21 03:19:55;;;;;;;;;11.75;11.00;;;;;21.25;50.86;100252.78;146607;617;46019;-72
2022/06/21 03:22:52;;;;;;;;;16.50;14.00;;;;;22.56;51.70;100443.63;146605;563;46010;-72
2022/06/21 03:30:45;;;;;;;;;13.75;12.50;;;;;22.56;50.98;100447.16;146605;625;46018;-76
2022/06/21 03:38:49;;;;;;;;;;;;;;;;;;;;;
2022/06/21 03:42:03;;;;;;;;;12.75;11.75;;;;;20.65;51.97;100113.03;146607;590;46010;-74
2022/06/21 03:45:16;;;;;;;;;11.00;11.00;;;;;22.53;52.93;100438.34;146610;566;46010;-73
2022/06/21 03:48:50;;;;;;;;;10.25;10.25;;;;;22.52;51.85;100434.84;146610;589;46010;-73
2022/06/21 03:51:51;;;;;;;;;11.75;11.25;;;;;22.54;52.68;100443.63;146609;621;46021;-72
2022/06/21 03:55:39;;;;;;;;;12.25;10.75;;;;;21.43;51.40;100252.81;146608;592;46018;-72
2022/06/21 03:59:12;;;;;;;;;14.00;12.00;;;;;22.64;51.87;100451.53;146604;577;46020;-81
2022/06/21 04:02:44;;;;;;;;;13.75;13.00;;;;;22.68;53.06;100440.06;146603;661;46018;-78
2022/06/21 04:05:46;;;;;;;;;11.75;10.75;;;;;22.69;53.66;100448.00;146608;595;46018;-79
2022/06/21 04:09:04;;;;;;;;;13.75;13.00;;;;;21.64;51.84;100257.16;146604;628;47008;-79
2022/06/21 04:12:18;;;;;;;;;15.50;13.25;;;;;22.95;52.48;100444.41;146611;672;46010;-77
2022/06/21 04:15:48;;;;;;;;;14.00;13.00;;;;;23.14;51.64;100454.03;146609;569;46018;-84
2022/06/21 04:19:26;;;;;;;;;15.75;13.00;;;;;23.47;50.68;100460.91;146610;590;46010;-87
2022/06/21 04:22:54;;;;;;;;;15.50;13.25;;;;;23.80;51.21;100450.16;146608;669;46008;-88
2022/06/21 04:26:34;;;;;;;;;19.25;17.00;;;;;24.13;50.99;100449.00;146610;659;46018;-87
2022/06/21 04:30:07;;;;;;;;;15.00;13.00;;;;;24.37;51.47;100455.88;146607;615;46010;-82
2022/06/21 04:33:47;;;;;;;;;20.00;16.75;;;;;24.61;50.08;100454.75;146609;632;46011;-88
2022/06/21 04:37:03;;;;;;;;;14.50;14.00;;;;;24.83;50.12;100453.63;146611;608;46018;-80
2022/06/21 04:41:02;;;;;;;;;17.50;15.25;;;;;23.91;48.29;100252.34;146608;588;46013;-86
2022/06/21 04:48:17;;;;;;;;;18.25;16.00;;;;;25.43;47.67;100441.41;146611;579;46018;-77
2022/06/21 04:51:30;;;;;;;;;13.50;12.00;;;;;25.64;47.64;100442.84;146606;612;46018;-76
2022/06/21 04:54:47;;;;;;;;;13.25;12.00;;;;;25.88;47.84;100446.94;146607;621;46018;-78
2022/06/21 04:58:00;;;;;;;;;14.75;13.50;;;;;26.11;47.33;100438.59;146607;576;46010;-77
2022/06/21 05:01:44;;;;;;;;;;;;;;;;;;;;;
2022/06/21 05:04:43;;;;;;;;;15.75;12.75;;;;;26.40;47.12;100436.28;146610;599;45019;-80
2022/06/21 05:07:52;;;;;;;;;12.50;12.50;;;;;26.56;47.12;100450.22;146608;595;46018;-81
2022/06/21 05:11:31;;;;;;;;;17.50;15.50;;;;;26.76;46.24;100454.25;146631;620;45019;-81
2022/06/21 05:14:35;;;;;;;;;16.25;14.00;;;;;26.92;46.10;100458.38;146611;563;47010;-80
2022/06/21 05:17:55;;;;;;;;;13.75;13.75;;;;;27.08;46.26;100462.47;146629;583;45011;-80
2022/06/21 05:21:05;;;;;;;;;17.50;15.75;;;;;27.26;45.98;100471.00;146630;574;45028;-79
2022/06/21 05:28:46;;;;;;;;;16.75;12.75;;;;;26.63;44.90;100280.78;146631;626;46006;-79
2022/06/21 05:32:15;;;;;;;;;13.75;12.75;;;;;27.84;45.17;100459.94;146632;610;45010;-79
2022/06/21 05:39:46;;;;;;;;;15.25;11.75;;;;;28.21;43.70;100477.69;146627;588;46011;-85
2022/06/21 05:42:53;;;;;;;;;15.25;15.00;;;;;28.19;43.61;100457.31;146630;611;46008;-87
2022/06/21 05:50:03;;;;;;;;;15.25;14.00;;;;;28.49;43.59;100482.34;146627;599;46008;-74
2022/06/21 05:53:51;;;;;;;;;12.25;10.00;;;;;28.62;41.41;100485.53;146633;612;46008;-87
2022/06/21 05:57:03;;;;;;;;;10.25;10.25;;;;;28.64;39.23;100486.41;146632;564;45010;-75
2022/06/21 06:01:00;;;;;;;;;;;;;;;;;;;;;
2022/06/21 06:04:28;;;;;;;;;10.00;9.50;;;;;28.65;38.28;100502.34;146635;617;45020;-85
2022/06/21 06:07:56;;;;;;;;;11.25;11.25;;;;;27.58;40.25;100322.03;146633;569;45010;-85
2022/06/21 06:19:20;;;;;;;;;10.75;10.75;;;;;28.89;40.09;100519.47;146635;597;46008;-85
2022/06/21 06:22:39;;;;;;;;;8.75;8.75;;;;;28.84;38.36;100494.72;146624;574;45030;-86
2022/06/21 06:26:04;;;;;;;;;9.50;8.25;;;;;29.07;37.07;100519.94;146635;640;45020;-78
2022/06/21 06:29:46;;;;;;;;;8.25;8.25;;;;;29.13;38.89;100525.06;146637;589;45010;-78
2022/06/21 06:33:02;;;;;;;;;8.75;8.75;;;;;29.25;38.32;100527.38;146640;566;45011;-79
2022/06/21 06:36:44;;;;;;;;;10.75;10.00;;;;;29.41;38.78;100527.84;146634;571;45010;-81
2022/06/21 06:39:41;;;;;;;;;8.00;8.00;;;;;29.55;37.28;100527.41;146640;609;46008;-79
2022/06/21 06:42:48;;;;;;;;;11.00;11.00;;;;;29.65;36.46;100521.75;146633;569;45010;-78
2022/06/21 06:45:54;;;;;;;;;10.50;10.00;;;;;29.77;36.13;100520.50;146637;609;45010;-79
2022/06/21 06:49:25;;;;;;;;;10.00;10.00;;;;;29.85;37.74;100521.16;146634;565;45019;-68
2022/06/21 06:53:11;;;;;;;;;11.75;11.75;;;;;28.97;36.12;100354.69;146630;636;45020;-69
2022/06/21 06:56:26;;;;;;;;;9.33;9.33;;;;;30.03;36.54;100517.03;146634;581;46010;-69
2022/06/21 06:59:27;;;;;;;;;10.00;7.75;;;;;30.17;35.29;100510.34;146635;574;46006;-68
2022/06/21 07:02:51;;;;;;;;;10.50;10.50;;;;;30.26;37.03;100500.25;146632;683;45010;-67
2022/06/21 07:06:38;;;;;;;;;9.25;9.25;;;;;29.42;37.75;100345.28;146635;564;45028;-69
2022/06/21 07:10:08;;;;;;;;;11.25;9.75;;;;;30.58;37.17;100501.78;146628;632;45019;-70
2022/06/21 07:13:07;;;;;;;;;13.00;9.75;;;;;30.71;35.14;100504.03;146610;565;46020;-69
2022/06/21 07:16:13;;;;;;;;;10.00;10.00;;;;;30.80;35.88;100501.06;146610;571;45924;-69
2022/06/21 07:19:21;;;;;;;;;10.25;10.25;;;;;30.88;34.07;100500.81;146611;564;46020;-70
2022/06/21 07:26:49;;;;;;;;;10.50;9.25;;;;;31.02;36.31;100502.03;146611;615;46008;-69
2022/06/21 07:30:39;;;;;;;;;6.75;6.75;;;;;31.15;35.21;100493.53;146613;563;46010;-79
2022/06/21 07:34:05;;;;;;;;;10.75;10.75;;;;;31.28;35.20;100495.72;146608;700;47018;-75
2022/06/21 07:37:50;;;;;;;;;11.25;10.50;;;;;31.35;35.81;100496.38;146609;608;46008;-75
2022/06/21 07:41:25;;;;;;;;;9.50;9.00;;;;;31.43;34.93;100496.94;146608;633;46010;-74
2022/06/21 07:45:08;;;;;;;;;10.50;10.50;;;;;31.56;33.88;100494.69;146611;588;46018;-76
2022/06/21 07:51:39;;;;;;;;;9.50;9.50;;;;;31.71;33.26;100491.41;146607;719;46018;-75
2022/06/21 07:55:14;;;;;;;;;10.25;9.00;;;;;31.79;32.86;100493.75;146608;572;46008;-75
2022/06/21 07:58:46;;;;;;;;;10.25;9.00;;;;;31.90;34.38;100487.97;146607;569;46018;-75
2022/06/21 08:09:39;;;;;;;;;10.75;10.75;;;;;31.40;33.33;100330.06;146601;664;46010;-73
2022/06/21 08:12:49;;;;;;;;;11.75;11.25;;;;;32.45;33.14;100483.00;146608;563;46018;-75
2022/06/21 08:20:37;;;;;;;;;11.75;10.75;;;;;32.89;33.88;100490.91;146609;569;46008;-74
2022/06/21 08:24:10;;;;;;;;;10.25;10.25;;;;;33.12;34.17;100487.22;146608;648;46021;-74
2022/06/21 08:31:39;;;;;;;;;11.25;11.25;;;;;32.49;33.99;100339.69;146610;586;46020;-75
2022/06/21 08:34:56;;;;;;;;;14.00;10.50;;;;;33.48;35.59;100498.03;146602;621;46008;-76
2022/06/21 08:38:17;;;;;;;;;13.00;12.25;;;;;33.38;34.56;100490.50;146611;679;45021;-75
2022/06/21 08:42:01;;;;;;;;;13.00;13.00;;;;;33.10;35.11;100499.84;146601;569;47008;-76
2022/06/21 08:53:44;;;;;;;;;10.50;10.50;;;;;32.12;36.04;100333.28;146611;565;46020;-73
2022/06/21 09:01:03;;;;;;;;;14.00;14.00;;;;;33.15;35.59;100481.69;146606;576;47008;-74
2022/06/21 09:08:51;;;;;;;;;13.00;12.00;;;;;33.27;34.49;100480.25;146610;604;46008;-74
2022/06/21 09:15:50;;;;;;;;;10.25;10.00;;;;;33.16;34.89;100478.06;146630;617;45018;-74
2022/06/21 09:19:18;;;;;;;;;12.50;11.75;;;;;33.29;32.81;100483.72;146630;598;45026;-74
2022/06/21 09:22:36;;;;;;;;;14.00;13.00;;;;;33.38;33.78;100480.63;146631;603;45018;-75
2022/06/21 09:25:53;;;;;;;;;12.25;12.00;;;;;33.47;33.08;100484.69;146632;611;45010;-74
2022/06/21 09:29:26;;;;;;;;;11.00;10.75;;;;;33.63;33.61;100483.03;146630;601;45021;-75
2022/06/21 09:32:42;;;;;;;;;13.25;13.00;;;;;33.76;33.45;100480.63;146630;664;45010;-75
2022/06/21 09:36:09;;;;;;;;;14.50;14.00;;;;;33.90;34.12;100491.56;146628;691;46012;-75
2022/06/21 09:39:22;;;;;;;;;14.25;13.00;;;;;34.02;34.05;100490.12;146630;569;45008;-74
2022/06/21 09:42:55;;;;;;;;;12.50;12.25;;;;;34.05;33.08;100476.50;146632;596;45010;-76
2022/06/21 09:46:24;;;;;;;;;13.00;11.50;;;;;34.01;34.86;100474.87;146625;666;45019;-73
2022/06/21 09:49:50;;;;;;;;;12.75;12.75;;;;;34.00;33.52;100475.84;146626;569;46010;-74
2022/06/21 09:53:46;;;;;;;;;13.00;12.50;;;;;33.10;33.96;100318.03;146631;569;45019;-74
2022/06/21 09:56:50;;;;;;;;;12.50;12.00;;;;;34.14;34.19;100480.56;146628;605;45032;-75
2022/06/21 10:00:22;;;;;;;;;14.00;11.50;;;;;34.15;32.58;100479.62;146629;564;45010;-74
2022/06/21 10:03:43;;;;;;;;;11.00;10.50;;;;;34.00;31.28;100474.03;146639;570;46010;-74
2022/06/21 10:06:57;;;;;;;;;14.25;12.50;;;;;33.79;31.01;100483.16;146627;596;45018;-74
2022/06/21 10:10:22;;;;;;;;;12.00;12.00;;;;;33.59;30.38;100483.28;146625;585;45020;-73
2022/06/21 10:13:35;;;;;;;;;12.25;12.00;;;;;33.47;33.57;100488.25;146610;626;46018;-73
2022/06/21 10:17:11;;;;;;;;;11.50;10.75;;;;;33.34;31.69;100477.22;146609;569;46018;-73
2022/06/21 10:20:35;;;;;;;;;10.50;10.50;;;;;33.41;34.15;100471.53;146608;563;47008;-73
2022/06/21 10:24:11;;;;;;;;;8.50;6.75;;;;;33.57;34.00;100470.75;146617;605;46019;-75
2022/06/21 10:27:51;;;;;;;;;12.50;11.00;;;;;33.65;34.65;100443.50;146610;582;46008;-73
2022/06/21 10:31:19;;;;;;;;;12.00;10.50;;;;;33.92;30.81;100464.59;146607;566;46010;-73
2022/06/21 10:34:49;;;;;;;;;12.75;11.00;;;;;33.80;32.45;100460.69;146612;569;46018;-77
2022/06/21 10:38:26;;;;;;;;;12.50;12.25;;;;;32.63;33.79;100288.94;146610;692;46010;-74
2022/06/21 10:45:52;;;;;;;;;14.75;14.50;;;;;33.81;34.21;100462.44;146611;645;46020;-76
2022/06/21 10:49:20;;;;;;;;;11.75;11.75;;;;;34.01;31.10;100466.81;146610;570;46010;-75
2022/06/21 10:53:16;;;;;;;;;12.25;11.25;;;;;33.63;33.35;100377.31;146607;618;46018;-75
2022/06/21 11:04:41;;;;;;;;;10.75;10.75;;;;;34.36;32.67;100448.03;146611;572;46008;-74
2022/06/21 11:08:12;;;;;;;;;12.00;11.50;;;;;33.80;32.54;100354.00;146606;578;46010;-75
2022/06/21 11:11:41;;;;;;;;;11.00;10.00;;;;;34.20;32.10;100451.50;146608;613;46018;-74
2022/06/21 11:15:16;;;;;;;;;13.00;11.50;;;;;33.49;32.79;100343.91;146606;567;46019;-75
2022/06/21 11:19:02;;;;;;;;;12.75;12.50;;;;;33.10;30.60;100307.28;146605;563;46018;-78
2022/06/21 11:22:16;;;;;;;;;13.00;11.00;;;;;33.81;31.73;100443.63;146609;596;46010;-75
2022/06/21 11:26:02;;;;;;;;;12.50;12.50;;;;;33.70;29.81;100446.81;146610;690;46008;-82
2022/06/21 11:29:36;;;;;;;;;12.50;12.50;;;;;32.92;30.38;100316.19;146611;583;46010;-74
2022/06/21 11:33:11;;;;;;;;;12.25;11.25;;;;;33.44;29.92;100441.81;146606;576;46008;-77
2022/06/21 11:36:39;;;;;;;;;11.75;11.25;;;;;32.55;32.74;100293.78;146613;579;46010;-75
2022/06/21 11:40:10;;;;;;;;;13.50;13.50;;;;;33.48;31.43;100427.28;146604;609;46923;-76
2022/06/21 11:43:03;;;;;;;;;14.25;12.75;;;;;33.51;31.31;100419.97;146608;564;46021;-70
2022/06/21 11:46:30;;;;;;;;;12.50;12.00;;;;;33.59;32.29;100416.06;146610;613;46008;-74
2022/06/21 11:49:55;;;;;;;;;13.75;12.00;;;;;33.65;32.36;100418.44;146610;564;46018;-75
2022/06/21 11:53:22;;;;;;;;;14.50;12.75;;;;;33.59;30.37;100414.25;146609;629;45923;-76
2022/06/21 11:56:27;;;;;;;;;14.00;11.00;;;;;33.50;30.63;100393.19;146609;599;46020;-77
2022/06/21 11:59:52;;;;;;;;;12.75;12.75;;;;;33.46;31.89;100404.97;146604;576;46923;-76
2022/06/21 12:02:59;;;;;;;;;11.50;10.50;;;;;33.37;31.89;100400.09;146609;609;46010;-77
2022/06/21 12:06:02;;;;;;;;;12.25;12.00;;;;;33.38;32.19;100397.31;146610;587;46010;-75
2022/06/21 12:09:30;;;;;;;;;13.25;12.25;;;;;32.69;31.69;100241.28;146613;574;45019;-75
2022/06/21 12:12:49;;;;;;;;;15.50;13.25;;;;;33.80;32.94;100391.66;146630;573;45010;-76
2022/06/21 12:16:25;;;;;;;;;15.25;13.75;;;;;32.95;31.93;100214.00;146631;626;45010;-76
2022/06/21 12:19:23;;;;;;;;;13.00;12.75;;;;;34.09;29.81;100394.69;146628;590;45021;-82
2022/06/21 12:22:49;;;;;;;;;14.50;13.50;;;;;33.71;32.08;100329.38;146630;733;46011;-84
2022/06/21 12:25:42;;;;;;;;;12.00;12.00;;;;;34.03;30.64;100392.31;146629;584;45010;-77
2022/06/21 12:28:35;;;;;;;;;12.50;12.00;;;;;33.92;30.48;100379.37;146631;610;45011;-80
2022/06/21 12:31:41;;;;;;;;;12.25;11.75;;;;;33.84;30.71;100376.22;146630;581;45027;-75
2022/06/21 12:34:47;;;;;;;;;13.00;13.00;;;;;33.81;29.80;100381.75;146632;617;45010;-75
2022/06/21 12:37:55;;;;;;;;;10.50;10.00;;;;;33.66;30.22;100385.22;146632;570;45923;-76
2022/06/21 12:41:38;;;;;;;;;11.75;11.75;;;;;33.50;31.10;100379.75;146629;569;46018;-71
2022/06/21 12:45:22;;;;;;;;;10.75;10.75;;;;;32.66;30.62;100240.47;146634;601;45010;-72
2022/06/21 12:48:50;;;;;;;;;12.75;11.75;;;;;33.45;31.49;100373.69;146630;570;45018;-70
2022/06/21 12:52:30;;;;;;;;;12.25;10.75;;;;;33.45;31.76;100357.56;146630;619;46008;-70
2022/06/21 12:56:10;;;;;;;;;13.00;13.00;;;;;32.52;30.79;100193.75;146629;607;46010;-73
2022/06/21 12:59:26;;;;;;;;;10.50;10.00;;;;;33.59;31.52;100356.91;146634;575;45018;-72
2022/06/21 13:03:06;;;;;;;;;12.75;12.00;;;;;33.42;32.04;100326.31;146628;589;45010;-74
2022/06/21 13:06:28;;;;;;;;;15.75;15.00;;;;;33.74;31.95;100364.19;146633;576;45010;-79
2022/06/21 13:09:56;;;;;;;;;9.25;9.25;;;;;33.83;31.10;100358.34;146636;590;45012;-74
2022/06/21 13:13:22;;;;;;;;;14.00;13.25;;;;;33.80;31.58;100348.63;146608;574;46011;-79
2022/06/21 13:17:04;;;;;;;;;11.25;11.25;;;;;32.90;31.18;100181.16;146615;621;46010;-73
2022/06/21 13:20:27;;;;;;;;;13.00;12.25;;;;;33.88;31.14;100344.66;146609;720;46019;-72
2022/06/21 13:23:50;;;;;;;;;12.50;12.50;;;;;33.86;30.84;100342.03;146611;592;46010;-73
2022/06/21 13:27:12;;;;;;;;;14.00;14.00;;;;;33.99;32.32;100331.53;146612;575;45019;-73
2022/06/21 13:30:35;;;;;;;;;14.25;12.00;;;;;34.15;30.83;100331.63;146610;587;45018;-72
2022/06/21 13:33:32;;;;;;;;;13.75;12.75;;;;;34.19;30.59;100335.87;146612;571;46019;-72
2022/06/21 13:36:48;;;;;;;;;13.25;13.25;;;;;34.23;31.25;100330.25;146607;572;46019;-70
2022/06/21 13:40:12;;;;;;;;;11.50;11.50;;;;;34.32;32.03;100333.41;146611;625;46008;-78
2022/06/21 13:43:17;;;;;;;;;11.75;10.75;;;;;34.43;32.74;100329.19;146612;627;45019;-77
2022/06/21 13:46:33;;;;;;;;;12.25;12.25;;;;;33.55;32.21;100176.97;146610;594;46008;-79
2022/06/21 13:49:32;;;;;;;;;14.50;13.25;;;;;34.46;32.64;100328.16;146607;665;46011;-72
2022/06/21 13:52:38;;;;;;;;;14.00;13.00;;;;;34.45;33.86;100335.34;146607;607;45578;-72
2022/06/21 13:55:57;;;;;;;;;12.50;12.50;;;;;34.46;33.72;100325.47;146609;603;46018;-72
2022/06/21 13:58:57;;;;;;;;;11.25;10.25;;;;;34.44;33.85;100330.06;146612;572;45018;-72
2022/06/21 14:02:05;;;;;;;;;14.75;13.00;;;;;34.33;33.61;100327.97;146611;624;45020;-71
2022/06/21 14:05:15;;;;;;;;;14.25;14.25;;;;;34.23;33.47;100322.19;146611;592;46018;-71
2022/06/21 14:08:34;;;;;;;;;15.25;14.25;;;;;34.17;33.32;100316.25;146611;593;46010;-69
2022/06/21 14:12:01;;;;;;;;;15.50;14.75;;;;;34.12;34.34;100321.91;146609;597;46008;-69
2022/06/21 14:15:17;;;;;;;;;14.00;14.00;;;;;34.11;34.25;100314.75;146608;571;46018;-69
2022/06/21 14:18:29;;;;;;;;;15.75;14.00;;;;;34.13;34.73;100317.38;146604;626;46018;-78
2022/06/21 14:21:36;;;;;;;;;14.25;14.25;;;;;34.15;35.76;100332.50;146609;569;46020;-75
2022/06/21 14:25:15;;;;;;;;;16.50;13.75;;;;;34.11;35.21;100321.97;146608;630;46018;-75
2022/06/21 14:28:31;;;;;;;;;14.25;13.00;;;;;33.96;35.03;100321.81;146607;600;46010;-69
2022/06/21 14:31:34;;;;;;;;;15.25;12.50;;;;;33.70;34.58;100320.44;146612;575;46018;-71
2022/06/21 14:34:51;;;;;;;;;14.00;12.75;;;;;33.52;34.98;100316.91;146609;597;46011;-74
2022/06/21 14:38:14;;;;;;;;;16.50;15.75;;;;;33.33;35.31;100313.34;146609;613;46008;-71
2022/06/21 14:41:25;;;;;;;;;12.00;12.00;;;;;33.22;35.63;100321.94;146611;593;46010;-73
2022/06/21 14:44:30;;;;;;;;;12.50;12.50;;;;;32.23;35.69;100166.47;146609;578;46018;-74
2022/06/21 14:48:16;;;;;;;;;12.75;11.50;;;;;32.07;38.06;100150.22;146611;629;46010;-73
2022/06/21 14:51:22;;;;;;;;;10.25;10.25;;;;;32.87;38.74;100315.56;146608;627;46018;-82
2022/06/21 14:54:47;;;;;;;;;15.25;13.75;;;;;32.76;38.05;100321.44;146608;569;46018;-73
2022/06/21 14:58:30;;;;;;;;;12.00;11.00;;;;;31.70;37.62;100193.91;146607;564;46010;-72
2022/06/21 15:01:51;;;;;;;;;13.50;12.00;;;;;32.41;37.79;100323.91;146608;574;46010;-70
2022/06/21 15:04:53;;;;;;;;;15.00;14.00;;;;;32.40;37.74;100313.22;146607;633;46009;-70
2022/06/21 15:08:08;;;;;;;;;16.50;14.75;;;;;32.37;38.13;100310.72;146605;608;46018;-70
2022/06/21 15:11:13;;;;;;;;;16.75;15.50;;;;;32.49;38.84;100317.34;146607;604;46008;-70
2022/06/21 15:14:08;;;;;;;;;17.25;16.25;;;;;32.55;38.17;100311.69;146607;577;46018;-71
2022/06/21 15:17:40;;;;;;;;;12.50;12.50;;;;;32.51;36.86;100302.06;146608;569;46018;-71
2022/06/21 15:20:46;;;;;;;;;16.25;14.00;;;;;32.51;37.84;100310.97;146608;564;46018;-70
2022/06/21 15:23:53;;;;;;;;;15.50;15.50;;;;;32.41;36.98;100310.50;146609;660;46018;-69
2022/06/21 15:27:03;;;;;;;;;16.50;15.50;;;;;32.33;37.37;100301.91;146608;575;46019;-72
2022/06/21 15:29:59;;;;;;;;;14.50;13.25;;;;;32.33;37.69;100307.28;146610;586;45925;-70
2022/06/21 15:32:59;;;;;;;;;18.50;14.75;;;;;32.34;37.97;100306.38;146605;566;46919;-72
2022/06/21 15:36:14;;;;;;;;;18.50;17.75;;;;;32.33;37.90;100312.66;146606;614;46018;-71
2022/06/21 15:39:32;;;;;;;;;14.75;14.50;;;;;32.33;38.06;100298.37;146610;565;46012;-71
2022/06/21 15:42:49;;;;;;;;;14.00;14.00;;;;;32.41;38.03;100301.59;146609;654;46008;-70
2022/06/21 15:46:11;;;;;;;;;19.75;17.25;;;;;32.48;37.92;100305.75;146608;600;46010;-72
2022/06/21 15:52:47;;;;;;;;;14.25;13.50;;;;;32.61;37.38;100304.22;146607;607;46010;-70
2022/06/21 15:56:20;;;;;;;;;16.00;15.00;;;;;32.51;37.14;100278.78;146608;622;46008;-71
2022/06/21 15:59:44;;;;;;;;;14.00;14.00;;;;;32.64;37.09;100305.91;146609;619;46010;-72
2022/06/21 16:03:11;;;;;;;;;16.00;15.25;;;;;32.64;39.35;100312.13;146610;631;46019;-71
2022/06/21 16:06:38;;;;;;;;;18.50;15.75;;;;;32.64;39.72;100312.13;146608;570;46010;-71
2022/06/21 16:09:34;;;;;;;;;17.75;16.25;;;;;32.63;40.29;100310.41;146607;607;46008;-70
2022/06/21 16:12:34;;;;;;;;;16.00;16.00;;;;;32.59;40.67;100310.63;146611;620;46010;-70
2022/06/21 16:15:35;;;;;;;;;13.75;13.50;;;;;32.51;39.19;100310.97;146605;627;46018;-69
2022/06/21 16:18:33;;;;;;;;;13.25;12.50;;;;;32.39;39.51;100315.06;146608;582;46010;-70
2022/06/21 16:21:36;;;;;;;;;14.75;14.50;;;;;32.34;38.68;100308.19;146609;586;46018;-70
2022/06/21 16:24:46;;;;;;;;;15.00;13.50;;;;;31.65;38.32;100194.13;146607;609;46010;-70
2022/06/21 16:27:51;;;;;;;;;12.75;12.00;;;;;32.28;38.80;100308.47;146609;576;46018;-70
2022/06/21 16:34:52;;;;;;;;;18.00;14.50;;;;;32.16;40.74;100310.75;146609;579;46018;-71
2022/06/21 16:38:01;;;;;;;;;16.25;14.50;;;;;32.03;39.98;100316.72;146611;566;46010;-72
2022/06/21 16:44:39;;;;;;;;;14.50;13.75;;;;;31.96;39.91;100319.69;146611;577;45018;-70
2022/06/21 16:48:14;;;;;;;;;16.25;15.00;;;;;31.98;39.03;100324.97;146608;730;46008;-71
2022/06/21 16:51:42;;;;;;;;;14.50;12.75;;;;;31.90;38.31;100314.59;146612;635;46010;-71
2022/06/21 16:54:44;;;;;;;;;11.00;11.00;;;;;31.83;38.57;100320.22;146608;570;46008;-71
2022/06/21 16:57:42;;;;;;;;;15.75;14.75;;;;;31.67;39.55;100317.34;146612;697;46010;-72
2022/06/21 17:00:46;;;;;;;;;15.50;15.25;;;;;31.56;40.49;100325.84;146608;569;46018;-71
2022/06/21 17:03:51;;;;;;;;;20.50;17.00;;;;;31.41;41.04;100330.03;146608;583;46010;-71
2022/06/21 17:06:52;;;;;;;;;15.50;14.00;;;;;31.29;41.61;100328.69;146611;725;46010;-70
2022/06/21 17:10:01;;;;;;;;;14.00;13.00;;;;;31.23;40.91;100333.44;146612;565;46010;-72
2022/06/21 17:12:55;;;;;;;;;17.75;17.50;;;;;31.21;41.79;100328.13;146609;585;46018;-72
2022/06/21 17:15:51;;;;;;;;;16.00;15.00;;;;;31.17;41.57;100329.19;146609;633;46010;-71
2022/06/21 17:19:38;;;;;;;;;18.00;16.00;;;;;30.11;40.68;100153.13;146605;565;46019;-71
2022/06/21 17:22:40;;;;;;;;;13.00;12.75;;;;;31.06;40.48;100324.28;146607;657;46018;-71
2022/06/21 17:25:33;;;;;;;;;16.75;15.25;;;;;31.03;40.56;100323.53;146607;564;46019;-72
2022/06/21 17:29:06;;;;;;;;;14.50;14.50;;;;;31.03;39.80;100334.22;146609;610;46018;-69
2022/06/21 17:32:01;;;;;;;;;16.25;14.50;;;;;31.05;39.64;100317.16;146607;650;46019;-71
2022/06/21 17:35:10;;;;;;;;;15.00;14.00;;;;;31.06;39.50;100315.37;146607;570;46018;-70